Time;durP1;ratioP1;P1;durP2;ratioP2;P2;SDS_P1;SDS_P2;PMS_P1;PMS_P2;Temp;Humidity;BMP_temperature;BMP_pressure;BME280_temperature;BME280_humidity;BME280_pressure;Samples;Min_cycle;Max_cycle;Signal;HPM_P1;HPM_P2
2022/04/22 00:00:03;;;;;;;15.27;3.80;;;5.40;99.90;;;3.90;100.00;101023.22;5020840;28;20481;-74
2022/04/22 00:02:29;;;;;;;21.60;5.22;;;5.50;99.90;;;3.94;100.00;101026.66;5024122;28;20112;-75
2022/04/22 00:04:58;;;;;;;29.55;5.50;;;5.40;99.90;;;3.92;100.00;101026.69;5026882;28;20052;-75
2022/04/22 00:07:43;;;;;;;25.23;5.22;;;5.50;99.90;;;3.93;100.00;101017.09;5028121;28;20120;-75
2022/04/22 00:10:28;;;;;;;23.65;5.35;;;5.50;99.90;;;3.94;100.00;101024.91;5028722;28;20036;-75
2022/04/22 00:13:00;;;;;;;18.27;5.00;;;5.50;99.90;;;3.94;100.00;101021.44;5006078;28;20384;-74
2022/04/22 00:15:45;;;;;;;30.65;6.03;;;5.50;99.90;;;3.94;100.00;101016.25;5024386;28;20116;-75
2022/04/22 00:18:30;;;;;;;27.02;6.22;;;5.50;99.90;;;3.94;100.00;101016.25;5011767;28;20040;-75
2022/04/22 00:20:56;;;;;;;20.75;5.68;;;5.50;99.90;;;3.93;100.00;101007.56;5019708;28;20442;-74
2022/04/22 00:23:22;;;;;;;17.70;4.82;;;5.50;99.90;;;3.94;100.00;101013.63;5008660;28;20037;-74
2022/04/22 00:25:51;;;;;;;28.42;5.82;;;5.50;99.90;;;3.96;100.00;101009.25;5019712;28;20025;-74
2022/04/22 00:28:17;;;;;;;22.58;6.05;;;5.50;99.90;;;3.99;100.00;101004.00;5020114;28;20041;-75
2022/04/22 00:30:51;;;;;;;22.55;6.18;;;5.50;99.90;;;4.01;100.00;101000.47;5011848;28;20145;-75
2022/04/22 00:33:36;;;;;;;17.85;5.13;;;5.50;99.90;;;4.02;100.00;101002.22;5032743;28;20029;-76
2022/04/22 00:36:02;;;;;;;23.23;5.93;;;5.50;99.90;;;4.01;100.00;100997.03;5020400;28;20108;-75
2022/04/22 00:38:47;;;;;;;23.40;6.63;;;5.50;99.90;;;4.01;100.00;101002.22;5019449;28;20104;-75
2022/04/22 00:44:16;;;;;;;21.90;5.90;;;5.50;99.90;;;4.01;100.00;100999.63;5020618;28;20076;-75
2022/04/22 00:46:41;;;;;;;24.17;5.97;;;5.50;99.90;;;4.00;100.00;100990.09;5018629;28;20041;-75
2022/04/22 00:49:44;;;;;;;30.40;6.38;;;5.50;99.90;;;4.01;100.00;100984.84;5019177;28;20082;-75
2022/04/22 00:52:11;;;;;;;26.13;6.10;;;5.50;99.90;;;3.97;100.00;100987.53;5028151;28;20082;-74
2022/04/22 00:54:55;;;;;;;29.48;6.88;;;5.50;99.90;;;3.97;100.00;100979.72;5020185;28;20037;-75
2022/04/22 00:57:39;;;;;;;33.22;7.53;;;5.50;99.90;;;3.97;100.00;100982.31;5028220;28;20029;-75
2022/04/22 01:00:06;;;;;;;34.28;6.25;;;5.50;99.90;;;3.95;100.00;100971.06;5021723;28;20045;-75
2022/04/22 01:02:35;;;;;;;23.77;6.05;;;5.50;99.90;;;3.94;100.00;100974.56;5025569;28;20063;-74
2022/04/22 01:10:48;;;;;;;29.45;6.55;;;5.50;99.90;;;4.00;100.00;100977.06;5016257;28;20109;-75
2022/04/22 01:13:16;;;;;;;28.63;5.53;;;5.50;99.90;;;4.00;100.00;100977.94;5021691;28;20037;-75
2022/04/22 01:16:01;;;;;;;26.88;6.10;;;5.60;99.90;;;4.05;100.00;100980.47;5006824;28;20044;-75
2022/04/22 01:18:48;;;;;;;31.55;6.53;;;5.60;99.90;;;4.09;100.00;100982.13;5013134;28;20389;-75
2022/04/22 01:21:13;;;;;;;35.03;7.30;;;5.60;99.90;;;4.09;100.00;100982.13;5021048;28;20117;-75
2022/04/22 01:23:39;;;;;;;29.75;6.35;;;5.60;99.90;;;4.10;100.00;100979.50;5011144;28;20041;-75
2022/04/22 01:26:06;;;;;;;19.38;4.93;;;5.60;99.90;;;4.04;100.00;100969.19;5021190;28;20032;-75
2022/04/22 01:28:33;;;;;;;26.40;6.63;;;5.60;99.90;;;4.07;100.00;100971.72;5021922;28;20063;-76
2022/04/22 01:31:17;;;;;;;34.80;7.15;;;5.60;99.90;;;4.05;100.00;100967.44;5027490;28;20029;-75
2022/04/22 01:37:23;;;;;;;25.17;6.47;;;5.60;99.90;;;4.02;100.00;100976.16;5029438;28;20389;-75
2022/04/22 01:43:13;;;;;;;24.25;5.80;;;5.60;99.90;;;4.01;100.00;100973.56;5037124;28;20058;-75
2022/04/22 01:45:39;;;;;;;26.77;6.80;;;5.60;99.90;;;4.07;100.00;100978.69;5029118;28;20094;-74
2022/04/22 01:50:49;;;;;;;23.98;7.85;;;5.70;99.90;;;4.26;100.00;100980.13;5028249;28;20104;-74
2022/04/22 01:53:15;;;;;;;26.05;7.40;;;5.80;99.90;;;4.34;100.00;100982.56;5030589;28;20112;-76
2022/04/22 01:55:40;;;;;;;33.50;7.35;;;5.80;99.90;;;4.39;100.00;100975.56;5029954;28;20029;-75
2022/04/22 01:58:06;;;;;;;30.52;8.15;;;5.80;99.90;;;4.42;100.00;100972.03;5042790;28;20022;-74
2022/04/22 02:00:53;;;;;;;31.08;8.27;;;5.90;99.90;;;4.54;100.00;100971.81;5045473;28;20031;-74
2022/04/22 02:03:21;;;;;;;;;;;5.90;99.90;;;4.46;100.00;100977.16;5031050;28;20029;-75
2022/04/22 02:05:47;;;;;;;33.03;7.50;;;6.00;99.90;;;4.48;100.00;100964.97;5003553;28;19935;-75
2022/04/22 02:11:16;;;;;;;29.48;7.32;;;6.00;99.90;;;4.58;100.00;100970.00;5026116;28;20056;-75
2022/04/22 02:13:42;;;;;;;21.63;6.85;;;6.00;99.90;;;4.60;100.00;100963.91;5020275;28;20036;-75
2022/04/22 02:16:08;;;;;;;29.83;6.88;;;6.10;99.90;;;4.64;100.00;100959.47;5010089;28;20025;-75
2022/04/22 02:18:36;;;;;;;30.98;6.72;;;6.10;99.90;;;4.63;100.00;100968.19;5008486;28;20029;-75
2022/04/22 02:21:06;;;;;;;28.35;7.22;;;6.10;99.90;;;4.63;100.00;100957.75;5018084;28;20029;-75
2022/04/22 02:26:17;;;;;;;32.20;7.90;;;6.10;99.90;;;4.58;100.00;100955.25;5027920;28;20035;-75
2022/04/22 02:28:43;;;;;;;29.08;7.35;;;6.00;99.90;;;4.52;100.00;100950.13;5029136;28;20029;-75
2022/04/22 02:31:28;;;;;;;26.63;6.97;;;6.00;99.90;;;4.52;100.00;100950.13;5011963;28;20580;-75
2022/04/22 02:34:13;;;;;;;15.52;6.03;;;6.00;99.90;;;4.46;100.00;100945.88;5026818;28;20021;-74
2022/04/22 02:36:57;;;;;;;18.30;5.40;;;6.00;99.90;;;4.48;100.00;100948.47;5022743;28;20112;-75
2022/04/22 02:39:23;;;;;;;26.98;7.50;;;6.00;99.90;;;4.52;100.00;100944.91;5017502;28;20033;-76
2022/04/22 02:47:36;;;;;;;35.60;7.35;;;6.10;99.90;;;4.60;100.00;100943.03;5028165;28;20040;-75
2022/04/22 02:50:03;;;;;;;25.58;7.57;;;6.10;99.90;;;4.55;100.00;100934.41;5022807;28;20108;-75
2022/04/22 02:52:28;;;;;;;33.78;8.10;;;6.10;99.90;;;4.57;100.00;100937.00;5000713;28;20024;-76
2022/04/22 02:54:54;;;;;;;30.05;6.85;;;6.10;99.90;;;4.53;100.00;100923.16;5020382;28;20021;-75
2022/04/22 02:57:20;;;;;;;26.38;6.63;;;6.10;99.90;;;4.56;100.00;100925.72;5012171;28;20036;-76
2022/04/22 03:00:24;;;;;;;25.70;6.50;;;6.10;99.90;;;4.63;100.00;100927.31;5045029;28;20018;-75
2022/04/22 03:03:08;;;;;;;25.48;6.82;;;6.20;99.90;;;4.67;100.00;100920.31;5026094;28;20078;-75
2022/04/22 03:05:34;;;;;;;31.00;7.28;;;6.20;99.90;;;4.67;100.00;100921.16;5010327;28;20026;-75
2022/04/22 03:08:22;;;;;;;29.15;7.95;;;6.20;99.90;;;4.65;100.00;100917.72;5033026;28;20706;-75
2022/04/22 03:10:48;;;;;;;29.45;8.85;;;6.20;99.90;;;4.67;100.00;100917.69;5021895;28;20135;-75
2022/04/22 03:13:15;;;;;;;34.78;8.13;;;6.10;99.90;;;4.62;100.00;100909.97;5018841;28;20088;-75
2022/04/22 03:15:42;;;;;;;29.75;7.47;;;6.10;99.90;;;4.61;100.00;100903.00;5019943;28;20057;-75
2022/04/22 03:18:09;;;;;;;28.60;7.43;;;6.10;99.90;;;4.48;100.00;100915.41;5013646;28;20025;-76
2022/04/22 03:23:38;;;;;;;33.60;7.53;;;6.00;99.90;;;4.50;100.00;100915.41;5011273;28;20511;-75
2022/04/22 03:26:04;;;;;;;26.02;7.65;;;6.00;99.90;;;4.54;100.00;100903.16;5020204;28;20029;-76
2022/04/22 03:28:31;;;;;;;28.05;8.20;;;6.00;99.90;;;4.57;100.00;100909.16;5021239;28;20108;-75
2022/04/22 03:30:56;;;;;;;26.75;7.40;;;6.00;99.90;;;4.53;100.00;100902.28;5028086;28;20017;-75
2022/04/22 03:33:41;;;;;;;27.02;7.85;;;6.10;99.90;;;4.64;100.00;100908.16;5020059;28;20040;-76
2022/04/22 03:36:26;;;;;;;31.40;8.00;;;6.10;99.90;;;4.66;100.00;100911.59;5020794;28;20385;-75
2022/04/22 03:39:10;;;;;;;33.25;8.15;;;6.20;99.90;;;4.73;100.00;100913.22;5020887;28;20564;-75
2022/04/22 03:41:55;;;;;;;34.17;7.72;;;6.20;99.90;;;4.77;100.00;100906.16;5032097;28;20057;-76
2022/04/22 03:44:21;;;;;;;31.63;7.68;;;6.20;99.90;;;4.79;100.00;100908.75;5017697;28;20033;-75
2022/04/22 03:49:50;;;;;;;34.15;7.40;;;6.30;99.90;;;4.87;100.00;100899.88;5025041;28;20381;-75
2022/04/22 03:52:52;;;;;;;33.63;8.10;;;6.40;99.90;;;4.91;100.00;100888.50;5012382;28;20024;-76
2022/04/22 03:58:10;;;;;;;29.33;7.07;;;6.40;99.90;;;4.89;100.00;100892.88;5019115;28;20060;-74
2022/04/22 04:01:45;;;;;;;29.58;8.00;;;6.50;99.90;;;5.01;100.00;100896.13;5025378;28;20070;-75
2022/04/22 04:04:11;;;;;;;32.38;7.93;;;6.40;99.90;;;5.03;100.00;100889.13;5026647;28;20032;-75
2022/04/22 04:06:56;;;;;;;33.47;9.07;;;6.50;99.90;;;5.11;100.00;100895.91;5028324;28;20090;-75
2022/04/22 04:17:53;;;;;;;39.72;8.60;;;6.70;99.90;;;5.29;100.00;100909.44;5019482;28;20095;-75
2022/04/22 04:23:15;;;;;;;34.13;8.48;;;6.80;99.90;;;5.38;100.00;100922.31;5017383;28;20095;-75
2022/04/22 04:25:43;;;;;;;34.35;9.20;;;6.80;99.90;;;5.44;100.00;100914.34;5020930;28;20029;-75
2022/04/22 04:28:09;;;;;;;25.80;6.93;;;6.80;99.90;;;5.35;100.00;100928.44;5026615;28;22582;-75
2022/04/22 04:33:43;;;;;;;25.15;7.53;;;6.90;99.90;;;5.49;100.00;100938.59;5037130;28;20060;-74
2022/04/22 04:36:11;;;;;;;39.88;9.15;;;7.00;99.90;;;5.61;100.00;100944.44;5023378;28;20097;-75
2022/04/22 04:39:17;;;;;;;25.95;7.97;;;7.00;99.90;;;5.64;100.00;100949.63;5023296;28;20057;-75
2022/04/22 04:41:43;;;;;;;31.33;7.70;;;7.10;99.90;;;5.76;100.00;100965.00;5023938;28;20739;-75
2022/04/22 04:44:09;;;;;;;30.60;7.50;;;7.20;99.90;;;5.83;100.00;100968.31;5023726;28;20052;-75
2022/04/22 04:46:54;;;;;;;33.75;7.72;;;7.20;99.90;;;5.89;100.00;100966.41;5021678;28;20044;-75
2022/04/22 04:49:39;;;;;;;24.77;8.05;;;7.20;99.90;;;5.94;100.00;100963.72;5020596;28;20078;-75
2022/04/22 04:52:24;;;;;;;40.72;7.32;;;7.30;99.90;;;5.93;100.00;100959.38;5017898;28;20048;-75
2022/04/22 04:54:51;;;;;;;32.80;6.70;;;7.30;99.90;;;5.94;100.00;100956.78;5014465;28;20025;-74
2022/04/22 04:57:19;;;;;;;26.08;7.10;;;7.30;99.90;;;5.87;100.00;100947.31;5027522;28;20031;-75
2022/04/22 04:59:45;;;;;;;37.92;7.47;;;7.40;99.90;;;5.95;100.00;100950.63;5023231;28;20451;-75
2022/04/22 05:02:30;;;;;;;27.85;6.07;;;7.40;99.90;;;5.94;100.00;100941.09;5021455;28;20033;-75
2022/04/22 05:04:55;;;;;;;29.60;6.90;;;7.30;99.90;;;5.98;100.00;100954.06;5027979;28;20418;-75
2022/04/22 05:07:48;;;;;;;18.10;4.05;;;7.30;99.90;;;5.83;100.00;100948.31;5043959;28;20033;-75
2022/04/22 05:10:18;;;;;;;28.10;6.65;;;7.30;99.90;;;5.95;100.00;100936.72;5030110;28;20083;-74
2022/04/22 05:13:03;;;;;;;32.28;7.15;;;7.40;99.90;;;6.02;100.00;100940.03;5043852;28;20021;-74
2022/04/22 05:15:31;;;;;;;36.80;7.35;;;7.40;99.90;;;6.14;100.00;100937.13;5046383;28;20033;-75
2022/04/22 05:18:17;;;;;;;34.13;6.57;;;7.50;99.90;;;6.19;100.00;100937.88;5013035;28;20033;-74
2022/04/22 05:21:02;;;;;;;31.23;7.43;;;7.60;99.90;;;6.33;100.00;100948.00;5018260;28;20028;-75
2022/04/22 05:23:28;;;;;;;33.65;6.40;;;7.60;99.90;;;6.28;100.00;100958.53;5041449;28;20404;-74
2022/04/22 05:25:54;;;;;;;25.88;6.55;;;7.60;99.90;;;6.31;100.00;100953.25;5027734;28;20022;-74
2022/04/22 05:34:26;;;;;;;29.95;6.68;;;7.70;99.90;;;6.49;100.00;100951.06;5037770;28;20039;-75
2022/04/22 05:37:10;;;;;;;32.92;5.88;;;7.70;99.90;;;6.38;100.00;100953.09;5028485;28;20112;-75
2022/04/22 05:39:36;;;;;;;25.35;7.30;;;7.80;99.90;;;6.51;100.00;100954.50;5040472;28;20475;-75
2022/04/22 05:42:02;;;;;;;29.88;6.60;;;7.90;99.90;;;6.60;100.00;100959.47;5029529;28;20029;-74
2022/04/22 05:44:29;;;;;;;33.35;6.10;;;7.90;99.90;;;6.53;100.00;100964.00;5025948;28;20048;-75
2022/04/22 05:47:14;;;;;;;34.65;6.68;;;7.90;99.90;;;6.56;100.00;100971.78;5015873;28;20037;-75
2022/04/22 05:49:42;;;;;;;22.77;5.60;;;7.90;99.90;;;6.61;100.00;100976.91;5043806;28;20032;-74
2022/04/22 05:52:08;;;;;;;31.92;5.72;;;8.00;99.90;;;6.68;100.00;100968.00;5021798;28;20025;-74
2022/04/22 05:54:34;;;;;;;29.27;6.90;;;8.10;99.90;;;6.82;100.00;100964.13;5021116;28;20485;-75
2022/04/22 05:57:19;;;;;;;32.55;6.43;;;8.10;99.90;;;6.81;100.00;100959.81;5020904;28;20035;-80
2022/04/22 06:02:31;;;;;;;37.60;6.53;;;8.30;99.90;;;7.22;100.00;100952.56;5028698;28;20093;-75
2022/04/22 06:05:15;;;;;;;29.45;6.10;;;8.40;99.90;;;7.21;100.00;100953.44;5020388;28;20091;-74
2022/04/22 06:10:45;;;;;;;29.08;5.65;;;8.50;99.90;;;7.15;100.00;100962.34;5026592;28;20039;-75
2022/04/22 06:13:11;;;;;;;24.65;5.72;;;8.60;99.90;;;7.34;100.00;100968.78;5041433;28;20393;-76
2022/04/22 06:15:55;;;;;;;26.33;6.13;;;8.50;99.90;;;7.27;100.00;100976.84;5031266;28;20033;-75
2022/04/22 06:18:23;;;;;;;24.75;5.65;;;8.60;99.90;;;7.32;100.00;100972.31;5014134;28;20037;-75
2022/04/22 06:20:51;;;;;;;28.38;5.38;;;8.60;99.90;;;7.37;100.00;100975.69;5011349;28;20021;-76
2022/04/22 06:23:17;;;;;;;21.80;5.30;;;8.70;99.90;;;7.48;100.00;100975.38;5043285;28;20531;-74
2022/04/22 06:25:46;;;;;;;19.27;5.13;;;8.70;99.90;;;7.58;100.00;100987.28;5043891;28;20094;-75
2022/04/22 06:30:57;;;;;;;21.05;4.90;;;8.90;99.90;;;7.70;100.00;100984.28;5036439;28;20104;-74
2022/04/22 06:33:42;;;;;;;25.35;5.47;;;8.90;99.90;;;7.77;100.00;100975.31;5019471;28;20033;-75
2022/04/22 06:47:31;;;;;;;21.52;5.68;;;9.70;99.90;;;9.15;100.00;100956.69;5026855;28;20052;-74
2022/04/22 06:50:19;;;;;;;19.35;4.13;;;10.00;99.90;;;9.20;100.00;100953.88;5026648;28;20473;-75
2022/04/22 06:52:46;;;;;;;21.10;5.78;;;10.20;99.90;;;9.44;100.00;100960.03;5024537;28;20047;-74
2022/04/22 06:55:34;;;;;;;21.92;5.47;;;10.40;99.90;;;9.15;100.00;100967.19;5029754;28;20090;-75
2022/04/22 06:58:20;;;;;;;20.85;6.30;;;10.30;99.90;;;9.07;100.00;100968.41;5025075;28;20033;-75
2022/04/22 07:01:07;;;;;;;20.45;5.68;;;10.20;99.90;;;8.93;100.00;100971.53;5012290;28;20095;-74
2022/04/22 07:03:33;;;;;;;17.65;5.40;;;10.20;99.90;;;8.89;100.00;100970.78;5026008;28;20090;-75
2022/04/22 07:06:36;;;;;;;17.45;4.72;;;10.10;99.90;;;8.87;100.00;100974.38;5028284;28;20029;-76
2022/04/22 07:09:04;;;;;;;19.85;5.97;;;10.20;99.90;;;9.12;100.00;100984.88;5020491;28;20440;-75
2022/04/22 07:11:50;;;;;;;25.25;5.65;;;10.20;99.90;;;9.00;100.00;100984.38;5020908;28;20044;-75
2022/04/22 07:14:36;;;;;;;18.75;6.10;;;10.30;99.90;;;9.17;100.00;100986.41;5040977;28;20421;-75
2022/04/22 07:19:51;;;;;;;22.80;5.03;;;10.20;99.90;;;8.91;100.00;101012.75;5026343;28;20322;-74
2022/04/22 07:22:17;;;;;;;18.27;5.90;;;10.20;99.90;;;8.98;100.00;101017.72;5019263;28;20052;-74
2022/04/22 07:24:43;;;;;;;16.95;5.55;;;10.30;99.90;;;9.29;100.00;101003.50;5020372;28;20041;-75
2022/04/22 07:30:17;;;;;;;21.63;5.63;;;10.40;99.90;;;9.36;100.00;100996.25;5020134;28;20396;-74
2022/04/22 07:32:47;;;;;;;20.70;4.72;;;10.50;99.90;;;9.30;98.87;100988.59;5017742;28;20104;-75
2022/04/22 07:35:19;;;;;;;22.42;6.07;;;10.60;99.90;;;9.57;98.46;100987.53;5021610;28;20040;-75
2022/04/22 07:40:37;;;;;;;17.63;5.13;;;10.70;99.90;;;9.53;96.85;100987.72;5021804;28;20087;-75
2022/04/22 07:49:14;;;;;;;25.85;4.88;;;11.00;99.90;;;10.00;93.88;100998.13;5019522;28;20409;-75
2022/04/22 07:51:41;;;;;;;25.17;5.82;;;11.10;99.90;;;10.19;93.60;100995.63;5026287;28;20083;-74
2022/04/22 07:54:12;;;;;;;21.95;5.20;;;11.20;99.90;;;10.23;92.22;100994.59;5027793;28;20030;-75
2022/04/22 07:56:57;;;;;;;11.05;3.22;;;11.20;99.90;;;10.06;90.14;100990.88;5018725;28;20035;-75
2022/04/22 07:59:25;;;;;;;17.70;4.88;;;11.30;99.90;;;10.48;90.23;100996.25;5023325;28;20091;-75
2022/04/22 08:01:51;;;;;;;17.63;5.60;;;11.70;99.90;;;11.16;88.23;101002.94;5017730;28;20124;-74
2022/04/22 08:04:17;;;;;;;15.80;5.32;;;11.80;99.90;;;11.15;85.08;100995.97;5020386;28;20132;-75
2022/04/22 08:06:42;;;;;;;17.33;5.05;;;12.10;99.90;;;11.40;83.26;100995.72;5017384;28;20532;-75
2022/04/22 08:09:09;;;;;;;14.85;5.18;;;12.40;99.90;;;11.94;81.46;100982.66;5021703;28;20033;-76
2022/04/22 08:14:20;;;;;;;15.20;4.90;;;12.70;99.90;;;11.53;80.17;101005.69;5020990;28;20584;-74
2022/04/22 08:17:23;;;;;;;17.60;5.75;;;12.70;99.90;;;11.77;79.46;100993.13;5019258;28;20030;-75
2022/04/22 08:20:08;;;;;;;14.30;5.88;;;12.80;99.90;;;11.75;78.96;100982.69;5025994;28;20029;-74
2022/04/22 08:22:35;;;;;;;18.77;6.18;;;12.90;99.90;;;12.06;79.20;100990.00;5010848;28;20041;-75
2022/04/22 08:25:19;;;;;;;15.23;5.72;;;13.00;99.90;;;12.30;78.95;100989.72;5026120;28;20091;-75
2022/04/22 08:28:03;;;;;;;21.50;5.93;;;13.20;99.90;;;12.70;77.33;100998.28;5020926;28;20033;-74
2022/04/22 08:36:18;;;;;;;14.38;5.30;;;13.70;99.90;;;12.92;77.31;100996.25;5038107;28;20047;-74
2022/04/22 08:38:44;;;;;;;17.38;5.50;;;13.60;99.90;;;12.38;74.66;101006.06;5025123;28;20701;-74
2022/04/22 08:41:10;;;;;;;14.75;5.18;;;13.40;99.90;;;12.05;76.46;100993.56;5025703;28;20029;-75
2022/04/22 08:43:38;;;;;;;20.75;5.40;;;13.30;99.90;;;12.11;77.02;100993.25;5023812;28;20481;-75
2022/04/22 08:46:03;;;;;;;13.23;5.15;;;13.30;99.90;;;12.25;78.28;100991.75;5041721;28;20318;-74
2022/04/22 08:51:15;;;;;;;14.15;4.70;;;13.30;99.90;;;12.16;77.92;100990.41;5026350;28;20602;-75
2022/04/22 08:56:30;;;;;;;21.35;5.30;;;13.30;99.90;;;12.37;78.38;100988.47;5018966;28;20096;-75
2022/04/22 08:58:55;;;;;;;15.82;4.65;;;13.50;99.90;;;12.60;78.03;100991.75;5021082;28;20595;-74
2022/04/22 09:01:21;;;;;;;12.52;3.80;;;13.50;99.90;;;12.42;76.13;100986.47;5016735;28;20043;-74
2022/04/22 09:04:07;;;;;;;14.18;4.57;;;13.50;99.90;;;12.51;77.16;100979.88;5017114;28;20057;-74
2022/04/22 09:09:41;;;;;;;12.35;4.03;;;13.60;99.90;;;12.49;74.76;100981.75;5024957;28;20558;-75
2022/04/22 09:12:13;;;;;;;12.80;4.57;;;13.60;99.90;;;12.47;75.35;100981.81;5018262;28;20037;-74
2022/04/22 09:14:49;;;;;;;15.60;4.07;;;13.70;99.90;;;12.68;75.44;100989.59;5036742;28;20397;-74
2022/04/22 09:17:27;;;;;;;13.63;4.55;;;13.70;99.90;;;12.62;74.44;100979.34;5022842;28;20288;-74
2022/04/22 09:19:57;;;;;;;12.63;3.22;;;13.60;99.90;;;12.49;73.23;100981.75;5029523;28;20036;-75
2022/04/22 09:22:28;;;;;;;8.25;3.28;;;13.60;99.90;;;12.48;72.50;100986.19;5028308;28;20074;-75
2022/04/22 09:24:57;;;;;;;14.77;4.43;;;13.60;99.90;;;12.80;73.36;100993.38;5021895;28;20066;-75
2022/04/22 09:27:43;;;;;;;8.88;2.75;;;13.50;99.90;;;12.40;71.85;100993.63;5008214;28;20052;-74
2022/04/22 09:30:28;;;;;;;12.67;4.57;;;13.50;99.90;;;12.75;72.34;100992.78;5026168;28;20029;-74
2022/04/22 09:45:09;;;;;;;18.25;3.88;;;14.40;99.90;;;13.57;68.41;100987.53;5028491;28;20061;-74
2022/04/22 09:47:37;;;;;;;10.68;3.58;;;14.50;99.90;;;13.73;67.35;100995.47;5030484;28;20090;-74
2022/04/22 09:50:38;;;;;;;17.05;3.38;;;14.50;99.90;;;13.70;67.38;100988.56;5012048;28;20099;-74
2022/04/22 09:55:53;;;;;;;9.35;3.15;;;14.70;99.90;;;13.78;65.93;100984.63;5024997;28;20072;-74
2022/04/22 09:58:27;;;;;;;9.88;3.30;;;14.70;99.90;;;13.91;66.14;100975.94;5026096;28;20032;-75
2022/04/22 10:01:01;;;;;;;9.15;2.42;;;14.70;99.90;;;13.54;64.62;100974.47;5038245;28;20083;-74
2022/04/22 10:03:49;;;;;;;9.55;3.30;;;14.80;99.90;;;13.90;65.03;100983.94;5027886;28;20071;-73
2022/04/22 10:11:47;;;;;;;13.43;3.42;;;15.30;99.90;;;14.66;63.06;100972.53;5021705;28;20055;-74
2022/04/22 10:14:35;;;;;;;7.50;3.05;;;15.40;99.90;;;14.45;59.55;100972.84;5027658;28;22161;-74
2022/04/22 10:17:04;;;;;;;13.02;3.97;;;15.50;99.90;;;14.62;61.27;100977.19;5028077;28;20393;-75
2022/04/22 10:19:51;;;;;;;9.30;3.78;;;15.70;99.90;;;15.12;60.99;100983.84;5041482;28;20033;-75
2022/04/22 10:22:37;;;;;;;13.70;4.15;;;15.80;99.90;;;15.04;60.27;100979.97;5024350;28;20067;-73
2022/04/22 10:25:40;;;;;;;7.43;3.15;;;16.00;99.90;;;15.15;59.80;100988.97;5026364;28;20033;-73
2022/04/22 10:28:10;;;;;;;7.75;3.45;;;16.10;99.90;;;15.13;58.67;100990.00;5027784;28;20061;-73
2022/04/22 10:30:42;;;;;;;15.75;4.35;;;16.10;99.90;;;15.26;59.32;100982.16;5008313;28;20029;-73
2022/04/22 10:33:11;;;;;;;16.02;4.47;;;16.30;99.90;;;15.43;60.24;100973.13;5026992;28;20092;-73
2022/04/22 10:35:43;;;;;;;11.90;3.70;;;16.20;99.90;;;15.26;57.87;100969.72;5010962;28;20029;-73
2022/04/22 10:38:35;;;;;;;5.63;2.60;;;16.20;99.90;;;14.91;56.29;100967.47;5045446;28;20025;-74
2022/04/22 10:47:14;;;;;;;10.10;3.90;;;16.10;99.90;;;15.22;56.92;100978.81;5020173;28;20087;-73
2022/04/22 10:50:17;;;;;;;12.13;3.47;;;16.20;99.90;;;15.20;56.58;100975.41;5020963;28;20052;-73
2022/04/22 10:55:46;;;;;;;9.10;3.20;;;16.00;99.90;;;14.87;57.51;100965.94;5027064;28;20021;-73
2022/04/22 10:58:36;;;;;;;8.70;2.90;;;15.80;99.90;;;14.72;56.92;100972.16;5032436;28;20421;-74
2022/04/22 11:01:03;;;;;;;22.05;4.25;;;16.10;99.90;;;15.14;57.93;100983.75;5036623;28;20033;-73
2022/04/22 11:03:55;;;;;;;5.97;3.13;;;16.20;99.90;;;14.95;54.90;100971.63;5025992;28;20571;-73
2022/04/22 11:06:58;;;;;;;8.68;3.30;;;16.10;99.90;;;15.15;56.47;100965.09;5030469;28;20044;-72
2022/04/22 11:09:26;;;;;;;7.00;2.65;;;16.10;99.90;;;14.79;55.12;100977.94;5039108;28;20124;-73
2022/04/22 11:11:54;;;;;;;10.27;3.47;;;16.10;99.90;;;15.03;55.82;100962.34;5016085;28;20052;-73
2022/04/22 11:14:44;;;;;;;9.05;3.03;;;16.10;99.90;;;15.10;56.35;100977.78;5020124;28;20151;-73
2022/04/22 11:17:51;;;;;;;10.98;4.00;;;16.20;99.90;;;15.25;56.37;100964.50;5020532;28;20104;-73
2022/04/22 11:23:21;;;;;;;9.00;3.13;;;16.40;99.90;;;15.23;55.79;100961.13;5019702;28;20085;-71
2022/04/22 11:25:47;;;;;;;10.35;3.22;;;16.20;99.90;;;15.06;56.55;100978.09;5001160;28;20029;-72
2022/04/22 11:28:54;;;;;;;7.47;3.40;;;16.30;99.90;;;15.06;55.87;101013.41;5018475;28;20521;-73
2022/04/22 11:31:28;;;;;;;9.25;3.10;;;16.10;99.90;;;15.05;57.02;100989.63;5034991;28;20031;-72
2022/04/22 11:34:16;;;;;;;12.05;4.45;;;16.10;99.90;;;15.08;56.70;100982.34;5016893;28;20042;-73
2022/04/22 11:36:48;;;;;;;7.05;3.80;;;16.30;99.90;;;15.42;56.42;100984.69;5009018;28;20029;-73
2022/04/22 11:39:19;;;;;;;11.93;4.38;;;16.50;99.90;;;15.54;56.64;101007.81;5016744;28;20053;-73
2022/04/22 11:42:01;;;;;;;13.90;4.07;;;16.50;99.90;;;15.54;57.63;100986.56;5023804;28;20023;-73
2022/04/22 11:44:28;;;;;;;16.52;4.47;;;16.60;99.90;;;15.69;57.72;100998.88;5025694;28;20017;-73
2022/04/22 11:49:42;;;;;;;8.40;3.78;;;16.60;99.90;;;15.32;56.52;100993.22;5024137;28;20036;-73
2022/04/22 11:52:08;;;;;;;10.45;3.65;;;16.50;99.90;;;15.20;57.85;100996.63;5024304;28;20041;-72
2022/04/22 11:54:35;;;;;;;9.57;3.85;;;16.20;99.90;;;14.74;58.42;100997.63;5008639;28;20112;-73
2022/04/22 11:57:03;;;;;;;15.27;5.13;;;16.00;99.90;;;14.85;60.56;100996.97;5026264;28;20017;-73
2022/04/22 11:59:29;;;;;;;14.68;5.18;;;16.20;99.90;;;15.29;59.99;100998.72;5042361;28;20040;-72
2022/04/22 12:08:10;;;;;;;13.23;4.82;;;16.20;99.90;;;15.19;60.55;101010.84;5040424;28;21572;-72
2022/04/22 12:10:55;;;;;;;17.58;6.03;;;16.20;99.90;;;15.09;60.11;101007.91;5007319;28;20037;-73
2022/04/22 12:13:28;;;;;;;12.20;4.60;;;15.90;99.90;;;14.61;60.93;100995.81;5027081;28;20609;-72
2022/04/22 12:15:54;;;;;;;10.75;4.80;;;15.90;99.90;;;14.94;61.96;101003.53;5024117;28;20048;-72
2022/04/22 12:18:41;;;;;;;13.10;5.55;;;16.00;99.90;;;14.83;60.11;101022.72;5041430;28;20048;-73
2022/04/22 12:21:11;;;;;;;20.67;6.18;;;15.80;99.90;;;14.69;60.56;101004.16;5014228;28;20025;-72
2022/04/22 12:26:32;;;;;;;13.50;5.93;;;16.00;99.90;;;14.86;60.54;101006.66;5039777;28;20176;-74
2022/04/22 12:29:18;;;;;;;8.85;4.15;;;15.80;99.90;;;14.25;61.09;100992.53;5002199;28;20539;-73
2022/04/22 12:31:56;;;;;;;12.37;5.23;;;15.60;99.90;;;14.45;63.27;100996.69;5026307;28;20489;-73
2022/04/22 12:34:38;;;;;;;12.13;5.35;;;15.50;99.90;;;14.33;61.88;100992.09;5039160;28;20037;-73
2022/04/22 12:37:26;;;;;;;14.43;4.47;;;15.50;99.90;;;14.14;62.02;100987.84;5026299;28;20631;-73
2022/04/22 12:40:11;;;;;;;13.43;4.95;;;15.30;99.90;;;14.18;63.04;101009.72;5020498;28;20079;-74
2022/04/22 12:43:23;;;;;;;7.72;4.05;;;15.30;99.90;;;14.07;62.75;100986.50;5023294;28;20039;-73
2022/04/22 12:54:31;;;;;;;9.75;4.30;;;15.20;99.90;;;14.02;63.61;100991.22;5026542;28;20044;-73
2022/04/22 12:57:25;;;;;;;11.55;4.15;;;15.10;99.90;;;14.14;63.97;101006.38;5042386;28;20432;-71
2022/04/22 12:59:55;;;;;;;13.25;5.35;;;15.20;99.90;;;14.21;63.27;100990.13;5027491;28;20030;-73
2022/04/22 13:02:50;;;;;;;12.10;4.88;;;15.30;99.90;;;14.26;62.77;100993.41;4992928;28;20077;-73
2022/04/22 13:05:29;;;;;;;14.38;4.75;;;15.30;99.90;;;14.03;62.44;100981.47;5015677;28;20481;-73
2022/04/22 13:08:17;;;;;;;9.05;3.97;;;15.30;99.90;;;13.93;61.40;100983.75;5044417;28;20231;-74
2022/04/22 13:10:47;;;;;;;10.60;3.58;;;15.20;99.90;;;13.83;61.89;100988.75;5034694;28;20455;-73
2022/04/22 13:13:16;;;;;;;8.63;3.92;;;15.10;99.90;;;13.91;62.28;100975.94;5022034;28;20497;-73
2022/04/22 13:15:42;;;;;;;9.63;3.88;;;15.20;99.90;;;14.08;62.57;100990.88;5021437;28;20029;-73
2022/04/22 13:18:13;;;;;;;15.73;4.57;;;15.20;99.90;;;14.20;63.67;100984.00;5026064;28;20033;-73
2022/04/22 13:20:39;;;;;;;9.85;4.22;;;15.30;99.90;;;14.14;61.88;100982.53;5020311;28;20399;-72
2022/04/22 13:23:26;;;;;;;8.93;4.50;;;15.40;99.90;;;14.46;63.35;100982.47;5025635;28;20022;-72
2022/04/22 13:25:55;;;;;;;10.10;4.05;;;15.60;99.90;;;14.57;62.45;100977.41;5022832;28;20611;-72